Time;durP1;ratioP1;P1;durP2;ratioP2;P2;SDS_P1;SDS_P2;PMS_P1;PMS_P2;Temp;Humidity;BMP_temperature;BMP_pressure;BME280_temperature;BME280_humidity;BME280_pressure;Samples;Min_cycle;Max_cycle;Signal;HPM_P1;HPM_P2
2023/08/20 00:06:29;;;;;;;2.43;0.93;;;;;;;19.82;100.00;101735.78;21169904;28;20052;-68
2023/08/20 00:16:32;;;;;;;2.65;1.20;;;;;;;19.89;100.00;101746.09;21134680;28;20402;-68
2023/08/20 00:26:35;;;;;;;1.15;0.90;;;;;;;19.89;100.00;101754.19;21168555;28;20048;-68
2023/08/20 00:36:36;;;;;;;2.53;1.30;;;;;;;19.89;100.00;101756.91;21131592;28;20043;-68
2023/08/20 00:46:39;;;;;;;2.25;0.88;;;;;;;19.86;100.00;101774.22;21149445;28;20063;-68
2023/08/20 00:56:41;;;;;;;1.75;1.00;;;;;;;19.86;99.89;101785.88;21165567;28;20048;-68
2023/08/20 01:07:34;;;;;;;0.70;0.70;;;;;;;19.84;99.62;101782.44;21165025;27;20533;-67
2023/08/20 01:17:37;;;;;;;1.00;0.90;;;;;;;19.83;99.14;101782.59;21135578;27;20562;-67
2023/08/20 01:28:10;;;;;;;1.17;1.00;;;;;;;19.82;98.79;101789.81;21145166;28;20044;-67
2023/08/20 01:38:12;;;;;;;0.90;0.70;;;;;;;19.81;98.55;101796.22;21162953;28;20098;-67
2023/08/20 01:48:13;;;;;;;2.78;0.93;;;;;;;19.78;98.37;101803.72;21161227;28;20096;-68
2023/08/20 01:58:15;;;;;;;2.30;1.00;;;;;;;19.77;97.96;101829.88;21159942;28;20464;-67
2023/08/20 02:08:18;;;;;;;1.13;0.80;;;;;;;19.76;97.86;101819.22;21126151;28;20489;-67
2023/08/20 02:18:20;;;;;;;1.00;0.80;;;;;;;19.73;97.21;101825.72;21159849;28;20059;-68
2023/08/20 02:28:22;;;;;;;1.95;1.00;;;;;;;19.72;97.05;101842.91;21123259;28;20044;-67
2023/08/20 02:38:25;;;;;;;1.10;0.93;;;;;;;19.69;96.39;101864.78;21162656;27;20047;-68
2023/08/20 02:48:28;;;;;;;2.28;0.90;;;;;;;19.67;96.14;101842.44;21198863;27;20521;-68
2023/08/20 02:58:30;;;;;;;1.63;1.02;;;;;;;19.64;96.18;101813.81;21212989;27;20116;-68
2023/08/20 03:08:32;;;;;;;1.75;1.00;;;;;;;19.63;97.07;101789.63;21199257;27;20047;-67
2023/08/20 03:18:33;;;;;;;2.00;1.10;;;;;;;19.65;97.32;101793.06;21230746;28;20047;-66
2023/08/20 03:28:35;;;;;;;1.40;1.00;;;;;;;19.65;97.43;101787.66;21204921;28;20122;-66
2023/08/20 03:38:37;;;;;;;2.22;1.20;;;;;;;19.63;97.27;101781.53;21209760;28;20055;-66
2023/08/20 03:48:39;;;;;;;2.38;1.13;;;;;;;19.64;97.14;101789.50;21220019;27;20047;-66
2023/08/20 03:58:41;;;;;;;2.20;1.25;;;;;;;19.62;96.96;101799.56;21240276;28;20103;-66
2023/08/20 04:08:43;;;;;;;1.40;1.13;;;;;;;19.62;97.05;101806.81;21239501;28;20452;-67
2023/08/20 04:18:45;;;;;;;1.33;1.17;;;;;;;19.62;97.10;101806.81;21249673;27;20073;-67
2023/08/20 04:28:47;;;;;;;1.70;1.42;;;;;;;19.62;96.97;101812.22;21202539;27;20495;-67
2023/08/20 04:38:48;;;;;;;1.27;1.00;;;;;;;19.60;96.73;101825.00;21167487;28;20050;-66
2023/08/20 04:48:50;;;;;;;1.58;1.10;;;;;;;19.60;97.10;101843.91;21166552;28;20096;-66
2023/08/20 04:58:53;;;;;;;1.52;1.30;;;;;;;19.60;97.07;101849.31;21143461;28;20067;-67
2023/08/20 05:09:16;;;;;;;1.65;1.20;;;;;;;19.54;97.67;101856.06;21166950;27;20451;-67
2023/08/20 05:19:18;;;;;;;2.75;1.52;;;;;;;19.56;98.18;101867.59;21163719;28;20686;-67
2023/08/20 05:29:21;;;;;;;2.05;1.30;;;;;;;19.55;98.93;101873.97;21145320;28;20050;-67
2023/08/20 05:39:25;;;;;;;2.17;1.60;;;;;;;19.53;99.41;101882.22;21151684;27;20055;-66
2023/08/20 05:49:28;;;;;;;1.93;1.77;;;;;;;19.51;99.56;101876.09;21169028;27;20035;-65
2023/08/20 05:59:33;;;;;;;1.83;1.30;;;;;;;19.58;99.70;101886.41;21215042;27;20312;-66
2023/08/20 06:09:36;;;;;;;3.15;1.75;;;;;;;19.60;100.00;101892.53;21180477;27;20096;-65
2023/08/20 06:19:37;;;;;;;4.03;1.45;;;;;;;19.65;100.00;101884.91;21167535;27;20501;-66
2023/08/20 06:29:39;;;;;;;3.03;2.00;;;;;;;19.69;100.00;101876.44;21208773;27;20518;-66
2023/08/20 06:39:41;;;;;;;5.28;1.73;;;;;;;19.75;100.00;101883.19;21236250;27;20054;-66
2023/08/20 06:49:43;;;;;;;3.38;1.83;;;;;;;19.76;100.00;101884.91;21235326;27;20047;-66
2023/08/20 06:59:45;;;;;;;4.97;1.58;;;;;;;19.80;100.00;101872.00;21230679;27;20440;-66
2023/08/20 07:09:46;;;;;;;2.72;1.58;;;;;;;19.88;100.00;101888.44;21211842;27;20052;-65
2023/08/20 07:19:49;;;;;;;2.85;1.30;;;;;;;19.99;100.00;101898.41;21151857;28;20060;-66
2023/08/20 07:29:51;;;;;;;2.17;1.40;;;;;;;20.12;100.00;101898.28;21148179;28;20555;-66
2023/08/20 07:39:53;;;;;;;2.35;1.33;;;;;;;20.22;100.00;101904.63;21134096;28;20380;-65
2023/08/20 07:49:55;;;;;;;2.83;1.70;;;;;;;20.35;100.00;101904.47;21161040;28;20051;-65
2023/08/20 07:59:58;;;;;;;2.65;1.33;;;;;;;20.46;100.00;101903.53;21170257;28;20407;-65
2023/08/20 08:10:00;;;;;;;3.20;1.42;;;;;;;20.58;100.00;101898.97;21169675;28;20433;-65
2023/08/20 08:20:03;;;;;;;2.20;1.20;;;;;;;20.72;100.00;101900.50;21169228;28;20051;-65
2023/08/20 08:30:06;;;;;;;3.30;1.33;;;;;;;20.89;99.80;101904.50;21168093;28;20376;-65
2023/08/20 08:40:08;;;;;;;1.60;1.00;;;;;;;21.03;99.35;101914.13;21168123;27;20052;-65
2023/08/20 08:50:10;;;;;;;1.52;0.77;;;;;;;21.22;98.82;101926.94;21167116;28;20073;-64
2023/08/20 09:00:13;;;;;;;2.03;1.23;;;;;;;21.58;96.47;101934.69;21173228;27;20520;-65
2023/08/20 09:10:17;;;;;;;2.45;1.08;;;;;;;21.75;94.26;101938.63;21181628;27;20052;-65
2023/08/20 09:20:34;;;;;;;3.47;1.15;;;;;;;21.81;93.32;101946.22;21193823;27;20061;-65
2023/08/20 09:30:36;;;;;;;2.95;1.10;;;;;;;21.68;93.49;101957.28;21179878;27;20044;-65
2023/08/20 09:40:39;;;;;;;2.35;1.10;;;;;;;21.59;93.08;101950.78;21199194;27;20079;-66
2023/08/20 09:50:41;;;;;;;3.10;1.17;;;;;;;21.49;93.47;101949.88;21177535;27;20514;-66
2023/08/20 10:00:43;;;;;;;3.60;1.17;;;;;;;21.46;94.22;101955.56;21169017;27;20058;-66
2023/08/20 10:10:45;;;;;;;1.92;1.20;;;;;;;21.44;94.43;101957.56;21142041;27;20056;-66
2023/08/20 10:20:50;;;;;;;3.17;0.80;;;;;;;21.41;94.33;101958.66;21133154;27;20786;-66
2023/08/20 10:31:11;;;;;;;1.85;0.88;;;;;;;21.41;94.39;101960.53;21190546;27;20083;-66
2023/08/20 10:41:16;;;;;;;1.67;0.90;;;;;;;21.41;94.51;101955.13;21173997;27;20419;-66
2023/08/20 10:51:24;;;;;;;1.40;0.67;;;;;;;21.42;94.39;101946.84;21183931;27;20039;-66
2023/08/20 11:01:27;;;;;;;2.30;1.48;;;;;;;21.42;94.05;101948.72;21160116;27;20131;-66
2023/08/20 11:11:29;;;;;;;1.50;1.00;;;;;;;21.40;94.08;101956.09;21179613;27;20054;-66
2023/08/20 11:21:33;;;;;;;3.45;1.10;;;;;;;21.36;94.94;101958.22;21146141;27;20078;-66
2023/08/20 11:31:36;;;;;;;2.78;0.77;;;;;;;21.33;95.55;101946.81;21171892;27;20507;-66
2023/08/20 11:41:39;;;;;;;0.70;0.70;;;;;;;21.29;95.60;101947.06;21178474;27;20804;-67
2023/08/20 11:51:43;;;;;;;3.53;0.90;;;;;;;21.27;95.71;101948.19;21172908;27;20071;-66
2023/08/20 12:01:52;;;;;;;2.25;0.93;;;;;;;21.27;96.28;101943.66;21168359;28;20059;-66
2023/08/20 12:11:55;;;;;;;2.08;1.13;;;;;;;21.26;96.86;101933.81;21178093;27;20054;-66
2023/08/20 12:21:57;;;;;;;2.53;1.10;;;;;;;21.26;97.22;101933.81;21123622;27;20403;-64
2023/08/20 12:31:59;;;;;;;2.17;0.70;;;;;;;21.25;97.41;101937.50;21167635;28;20043;-65
2023/08/20 12:42:02;;;;;;;1.95;0.80;;;;;;;21.28;97.41;101934.53;21163349;27;20048;-65
2023/08/20 12:52:04;;;;;;;3.00;1.00;;;;;;;21.28;97.41;101934.53;21166299;27;20502;-65
2023/08/20 13:02:06;;;;;;;1.75;0.80;;;;;;;21.28;97.55;101930.94;21164652;27;20052;-66
2023/08/20 13:12:11;;;;;;;2.90;0.80;;;;;;;21.27;97.82;101930.09;21145183;27;20048;-66
2023/08/20 13:22:14;;;;;;;1.15;0.80;;;;;;;21.25;97.54;101940.22;21168366;27;20453;-66
2023/08/20 13:32:15;;;;;;;0.75;0.68;;;;;;;21.22;97.66;101945.91;21160793;27;20118;-64
2023/08/20 13:42:17;;;;;;;2.58;1.10;;;;;;;21.20;98.07;101964.09;21167751;27;20059;-65
2023/08/20 13:52:21;;;;;;;1.73;0.80;;;;;;;21.15;97.83;101963.63;21184164;27;20055;-65
2023/08/20 14:02:23;;;;;;;1.17;0.63;;;;;;;21.12;97.48;101951.25;21180976;27;20116;-65
2023/08/20 14:12:25;;;;;;;1.15;0.60;;;;;;;21.10;97.19;101944.22;21183700;27;20077;-65
2023/08/20 14:22:27;;;;;;;1.65;0.80;;;;;;;21.06;97.74;101940.06;21177207;27;20043;-65
2023/08/20 14:32:29;;;;;;;5.03;1.20;;;;;;;21.11;99.52;101937.81;21162449;27;20340;-66
2023/08/20 14:42:31;;;;;;;3.47;1.35;;;;;;;21.11;99.19;101932.41;21167715;27;20063;-66
2023/08/20 14:52:34;;;;;;;3.95;1.10;;;;;;;21.15;98.81;101940.16;21190658;27;20869;-67
2023/08/20 15:02:35;;;;;;;5.25;1.30;;;;;;;21.19;98.57;101937.16;21176986;27;20043;-66
2023/08/20 15:12:37;;;;;;;3.42;1.30;;;;;;;21.20;98.20;101933.47;21181587;27;20503;-66
2023/08/20 15:22:40;;;;;;;4.45;1.20;;;;;;;21.21;97.91;101938.75;21178308;27;20053;-66
2023/08/20 15:32:42;;;;;;;4.15;1.30;;;;;;;21.20;97.52;101931.59;21186143;28;20044;-69
2023/08/20 15:42:44;;;;;;;6.05;4.10;;;;;;;21.19;97.16;101940.72;21182127;28;20051;-71
2023/08/20 15:52:47;;;;;;;4.50;2.70;;;;;;;21.21;98.26;101938.75;21181967;28;20119;-70
2023/08/20 16:02:49;;;;;;;5.15;2.83;;;;;;;21.23;99.24;101936.78;21187395;27;20051;-66
2023/08/20 16:12:51;;;;;;;6.53;3.28;;;;;;;21.25;100.00;101928.50;21174205;28;20051;-65
2023/08/20 16:22:54;;;;;;;3.15;2.20;;;;;;;21.30;100.00;101924.41;21205423;27;20077;-66
2023/08/20 16:32:56;;;;;;;6.07;1.63;;;;;;;21.33;100.00;101923.28;21238108;27;20074;-66
2023/08/20 16:42:59;;;;;;;2.53;1.50;;;;;;;21.33;100.00;101927.84;21209577;27;20043;-67
2023/08/20 16:53:01;;;;;;;1.90;1.20;;;;;;;21.28;100.00;101923.69;21172726;27;20055;-65
2023/08/20 17:03:04;;;;;;;2.25;0.98;;;;;;;21.27;100.00;101937.34;21139971;27;20059;-65
2023/08/20 17:13:07;;;;;;;2.78;1.17;;;;;;;21.23;100.00;101942.19;21166459;27;20048;-65
2023/08/20 17:23:09;;;;;;;1.05;0.85;;;;;;;21.22;99.85;101947.72;21177012;27;20637;-66
2023/08/20 17:33:15;;;;;;;2.78;0.80;;;;;;;21.18;99.70;101939.00;21197693;27;20070;-64
2023/08/20 17:43:17;;;;;;;3.10;1.10;;;;;;;21.14;99.46;101940.25;21196399;27;20046;-67
2023/08/20 17:53:25;;;;;;;2.53;0.80;;;;;;;21.11;99.36;101938.69;21184296;27;20112;-65
2023/08/20 18:03:26;;;;;;;1.60;0.82;;;;;;;21.07;99.27;101945.38;21175860;27;20043;-65
2023/08/20 18:13:28;;;;;;;4.72;1.27;;;;;;;21.01;98.91;101944.03;21154691;27;20048;-65
2023/08/20 18:23:30;;;;;;;2.67;0.85;;;;;;;20.99;99.21;101953.28;21216671;27;20052;-66
2023/08/20 18:33:32;;;;;;;2.63;0.80;;;;;;;20.93;99.18;101956.50;21156104;28;20062;-65
2023/08/20 18:43:34;;;;;;;1.50;0.60;;;;;;;20.90;99.08;101965.75;21156711;28;20151;-66
2023/08/20 18:53:35;;;;;;;1.42;0.70;;;;;;;20.88;98.95;101970.44;21135114;28;20048;-66
2023/08/20 19:03:37;;;;;;;1.60;0.80;;;;;;;20.85;98.78;101986.94;21084169;28;20123;-66
2023/08/20 19:13:39;;;;;;;2.35;0.77;;;;;;;20.82;98.70;101992.63;21154827;28;20043;-66
2023/08/20 19:23:41;;;;;;;1.30;0.68;;;;;;;20.80;98.66;101994.59;21176485;28;20414;-66
2023/08/20 19:33:43;;;;;;;2.67;0.93;;;;;;;20.76;98.22;101993.06;21142135;28;20058;-66
2023/08/20 19:43:45;;;;;;;2.25;1.10;;;;;;;20.71;98.05;101991.63;21180384;27;20059;-66
2023/08/20 19:53:47;;;;;;;3.03;0.90;;;;;;;20.70;97.93;101999.88;21186359;27;20454;-66
2023/08/20 20:03:48;;;;;;;2.33;0.90;;;;;;;20.67;97.71;102000.97;21189802;27;20059;-65
2023/08/20 20:13:51;;;;;;;2.38;0.68;;;;;;;20.65;97.66;102002.97;21195246;27;20047;-65
2023/08/20 20:23:53;;;;;;;1.63;0.80;;;;;;;20.62;97.46;102000.50;21210690;27;20073;-66
2023/08/20 20:33:54;;;;;;;2.42;0.80;;;;;;;20.60;97.38;102013.31;21182944;27;20418;-66
2023/08/20 20:43:56;;;;;;;1.40;0.65;;;;;;;20.58;97.45;102023.41;21185202;27;20058;-66
2023/08/20 20:53:58;;;;;;;1.88;1.00;;;;;;;20.54;97.21;102030.06;21166305;28;20054;-66
2023/08/20 21:04:00;;;;;;;1.85;1.05;;;;;;;20.53;96.96;102041.84;21165732;28;20051;-66
2023/08/20 21:14:02;;;;;;;2.08;1.20;;;;;;;20.50;96.71;102042.13;21165118;28;20043;-65
2023/08/20 21:24:04;;;;;;;2.88;1.30;;;;;;;20.47;96.42;102047.78;21165395;28;20077;-66
2023/08/20 21:34:06;;;;;;;2.33;1.13;;;;;;;20.45;96.51;102038.94;21162788;28;20052;-66
2023/08/20 21:44:07;;;;;;;2.55;1.10;;;;;;;20.44;96.46;102032.66;21161994;28;20062;-66
2023/08/20 21:54:09;;;;;;;1.02;0.75;;;;;;;20.45;96.01;102038.94;21162158;28;20055;-66
2023/08/20 22:04:11;;;;;;;1.67;1.00;;;;;;;20.42;95.64;102035.50;21142904;28;20063;-66
2023/08/20 22:14:12;;;;;;;1.55;1.13;;;;;;;20.42;95.40;102030.09;21160283;28;20562;-66
2023/08/20 22:24:19;;;;;;;1.00;0.70;;;;;;;20.37;95.51;102017.91;21159993;28;20051;-66
2023/08/20 22:34:20;;;;;;;2.38;1.00;;;;;;;20.40;95.10;102021.25;21157917;28;20055;-66
2023/08/20 22:44:22;;;;;;;1.13;0.80;;;;;;;20.39;94.85;102014.09;21158300;28;20055;-66
2023/08/20 22:54:24;;;;;;;2.45;0.80;;;;;;;20.37;94.44;102018.78;21157879;28;20051;-66
2023/08/20 23:04:26;;;;;;;2.38;0.90;;;;;;;20.37;94.15;102028.72;21138478;28;20056;-66
2023/08/20 23:14:28;;;;;;;0.75;0.60;;;;;;;20.34;93.78;102024.44;21156511;28;20051;-66
2023/08/20 23:24:29;;;;;;;2.05;1.38;;;;;;;20.33;93.68;102024.56;21155244;28;20059;-66
2023/08/20 23:34:32;;;;;;;1.55;0.80;;;;;;;20.24;93.45;102021.63;21137474;28;20492;-66
2023/08/20 23:44:34;;;;;;;2.58;0.93;;;;;;;20.28;93.33;102039.31;21155837;28;20093;-66
2023/08/20 23:54:36;;;;;;;1.20;0.70;;;;;;;20.28;92.93;102043.84;21154119;28;20048;-66
